FOOL Airport Information

Runway Information
Runway 16 Length 9844 ft width 148 ft
Elevation 29 ft Threshold 0 ft Heading 154
Runway 34 Length 9844 ft Width 148 ft
Elevation 28 ft Threshold 0 ft Heading 334
Airport Frequencies
Type A/G Name A/G VOICE Frequency 655.9 MHZ
Type RDO Name LIBREVILLE Frequency 666.6 MHZ
Type TWR Name TWR Frequency 118.7 MHZ
Airport Navaids
Type VOR-DME Name Libreville Frequency 112100 KHZ
Airport Weather Information & NOTAM
ADDS - METARS form results

(0226 UTC 28 November 2021)
Data provider http://aviationweather.gov/metar/data/
 
METAR text: FOOL 280200Z VRB02KT 7000 FEW011 24/24 Q1010 NOSIG
Conditions at: FOOL (LIBREVILLE/LEON , GA) observed 0200 UTC 28 November 2021
Temperature: 24.0°C (75°F)
Dewpoint: 24.0°C (75°F) [RH = 100%]
Pressure (altimeter): 29.82 inches Hg (1010.0 mb)
Winds: variable direction winds at 2 MPH (2 knots; 1.0 m/s)
Visibility: 4 miles ( 7 km)
Ceiling: at least 12,000 feet AGL
Clouds: few clouds at 1100 feet AGL
Weather: no significant weather observed at this time

METAR text: FOOL 280130Z VRB02KT 7000 FEW011 24/24 Q1010 NOSIG
Conditions at: FOOL (LIBREVILLE/LEON , GA) observed 0130 UTC 28 November 2021
Temperature: 24.0°C (75°F)
Dewpoint: 24.0°C (75°F) [RH = 100%]
Pressure (altimeter): 29.82 inches Hg (1010.0 mb)
Winds: variable direction winds at 2 MPH (2 knots; 1.0 m/s)
Visibility: 4 miles ( 7 km)
Ceiling: at least 12,000 feet AGL
Clouds: few clouds at 1100 feet AGL
Weather: no significant weather observed at this time

Forecast for: FOOL (LIBREVILLE/LEON , GA)
Text: TAF FOOL 272300Z 2800/2906 14006KT 9999 TS SCT010 FEW020CB
Forecast period: 0000 to 0600 UTC 28 November 2021
Forecast type: FROM: standard forecast or significant change
Winds: from the SE (140 degrees) at 7 MPH (6 knots; 3.1 m/s)
Visibility: 6 or more miles (10+ km)
Ceiling: at least 12,000 feet AGL
Clouds: scattered clouds at 1000 feet AGL
few clouds at 2000 feet AGL
Weather: TS  (thunderstorm)
Text: PROB30
Forecast period: 0000 to 0600 UTC 28 November 2021
Forecast type: TEMPORARY: The following changes expected for less than half the time period
Visibility: 2.49 miles (4.01 km)
Ceiling: 800 feet AGL
Clouds: broken clouds at 800 feet AGL
Weather: TSRA  (rain associated with thunderstorm(s))
Text: TEMPO 2800/2806 4000 TSRA BKN008
Forecast period: 0600 UTC 28 November 2021 to 0600 UTC 29 November 2021
Forecast type: BECOMING: Conditions expected to become as follows by 0800 UTC 28 November 2021
Winds: from the SE (140 degrees) at 7 MPH (6 knots; 3.1 m/s)
Visibility: 6 or more miles (10+ km)
Ceiling: at least 12,000 feet AGL
Clouds: scattered clouds at 1000 feet AGL
few clouds at 2000 feet AGL
Weather: NSW  (no significant weather)